Time;durP1;ratioP1;P1;durP2;ratioP2;P2;SDS_P1;SDS_P2;PMS_P1;PMS_P2;Temp;Humidity;BMP_temperature;BMP_pressure;BME280_temperature;BME280_humidity;BME280_pressure;Samples;Min_cycle;Max_cycle;Signal;HPM_P1;HPM_P2
2022/01/07 00:01:35;;;;;;;21.08;14.10;;;;;;;-144.47;100.00;61586.06;5032468;28;20402;-77
2022/01/07 00:04:00;;;;;;;19.25;14.48;;;;;;;-144.47;100.00;61586.06;5031235;28;20043;-77
2022/01/07 00:06:26;;;;;;;22.67;15.00;;;;;;;-144.47;100.00;61586.06;5035178;28;20025;-78
2022/01/07 00:08:51;;;;;;;18.63;13.95;;;;;;;-144.47;100.00;61586.06;5031223;28;20119;-78
2022/01/07 00:11:17;;;;;;;22.75;13.93;;;;;;;-144.47;100.00;61586.06;5031485;28;20026;-78
2022/01/07 00:13:42;;;;;;;22.42;14.88;;;;;;;-144.47;100.00;61586.06;5032172;28;20036;-78
2022/01/07 00:16:08;;;;;;;19.35;14.40;;;;;;;-144.47;100.00;61586.06;5031551;28;20048;-76
2022/01/07 00:18:34;;;;;;;20.20;14.65;;;;;;;-144.47;100.00;61586.06;5031937;28;20025;-78
2022/01/07 00:21:00;;;;;;;22.48;15.43;;;;;;;-144.47;100.00;61586.06;5031632;28;20128;-78
2022/01/07 00:23:26;;;;;;;22.98;15.55;;;;;;;-144.47;100.00;61586.06;5027548;28;20365;-78
2022/01/07 00:25:52;;;;;;;19.33;14.93;;;;;;;-144.47;100.00;61586.06;5031759;28;20573;-77
2022/01/07 00:28:18;;;;;;;19.08;14.38;;;;;;;-144.47;100.00;61586.06;5031480;28;20117;-78
2022/01/07 00:30:45;;;;;;;23.05;15.43;;;;;;;-144.47;100.00;61586.06;5013951;28;20853;-77
2022/01/07 00:33:10;;;;;;;24.60;14.85;;;;;;;-144.47;100.00;61586.06;5031494;28;20033;-78
2022/01/07 00:35:36;;;;;;;28.52;15.02;;;;;;;-144.47;100.00;61586.06;5031816;28;20041;-78
2022/01/07 00:38:02;;;;;;;24.83;15.50;;;;;;;-144.47;100.00;61586.06;5031370;28;20033;-78
2022/01/07 00:40:27;;;;;;;33.38;16.70;;;;;;;-144.47;100.00;61586.06;5031414;28;20033;-77
2022/01/07 00:42:54;;;;;;;27.25;16.45;;;;;;;-144.47;100.00;61586.06;5031617;28;20100;-77
2022/01/07 00:45:21;;;;;;;25.83;16.15;;;;;;;-144.47;100.00;61586.06;5031082;28;20041;-76
2022/01/07 00:47:48;;;;;;;27.10;16.73;;;;;;;-144.47;100.00;61586.06;5032041;28;20112;-77
2022/01/07 00:50:16;;;;;;;26.70;16.67;;;;;;;-144.47;100.00;61586.06;5031067;28;20091;-78
2022/01/07 00:52:42;;;;;;;21.17;15.52;;;;;;;-144.47;100.00;61586.06;5034894;28;20021;-75
2022/01/07 00:55:09;;;;;;;22.52;14.95;;;;;;;-144.47;100.00;61586.06;5036243;28;20038;-77
2022/01/07 00:57:35;;;;;;;20.60;14.85;;;;;;;-144.47;100.00;61586.06;5031409;28;20029;-77
2022/01/07 01:00:00;;;;;;;21.85;15.68;;;;;;;-144.47;100.00;61586.06;5013646;28;20037;-77
2022/01/07 01:02:27;;;;;;;26.63;16.35;;;;;;;-144.47;100.00;61586.06;5031274;28;20485;-78
2022/01/07 01:04:52;;;;;;;25.23;15.73;;;;;;;-144.47;100.00;61586.06;5030822;28;20041;-78
2022/01/07 01:07:18;;;;;;;23.08;15.15;;;;;;;-144.47;100.00;61586.06;5030616;28;20040;-78
2022/01/07 01:09:43;;;;;;;19.88;15.52;;;;;;;-144.47;100.00;61586.06;5031110;28;20045;-77
2022/01/07 01:12:10;;;;;;;24.17;15.23;;;;;;;-144.47;100.00;61586.06;5030684;28;20037;-78
2022/01/07 01:14:37;;;;;;;22.38;14.98;;;;;;;-144.47;100.00;61586.06;5030148;28;20030;-77
2022/01/07 01:17:03;;;;;;;23.67;14.50;;;;;;;-144.47;100.00;61586.06;5031011;28;20163;-77
2022/01/07 01:19:28;;;;;;;22.13;15.10;;;;;;;-144.47;100.00;61586.06;5031427;28;20129;-78
2022/01/07 01:21:55;;;;;;;21.48;14.93;;;;;;;-144.47;100.00;61586.06;5031563;28;20033;-77
2022/01/07 01:24:20;;;;;;;22.70;15.20;;;;;;;-144.47;100.00;61586.06;5031034;28;20033;-76
2022/01/07 01:26:46;;;;;;;26.00;16.15;;;;;;;-144.47;100.00;61586.06;5030457;28;20377;-77
2022/01/07 01:29:12;;;;;;;20.85;15.65;;;;;;;-144.47;100.00;61586.06;5031039;28;20048;-75
2022/01/07 01:31:37;;;;;;;21.52;15.60;;;;;;;-144.47;100.00;61586.06;5030813;28;20026;-77
2022/01/07 01:34:04;;;;;;;22.20;16.83;;;;;;;-144.47;100.00;61586.06;5030313;28;20051;-77
2022/01/07 01:36:30;;;;;;;24.15;15.63;;;;;;;-144.47;100.00;61586.06;5030690;28;20044;-75
2022/01/07 01:38:56;;;;;;;24.88;15.65;;;;;;;-144.47;100.00;61586.06;5009068;28;20041;-77
2022/01/07 01:41:21;;;;;;;20.58;15.50;;;;;;;-144.47;100.00;61586.06;5029837;28;20056;-77
2022/01/07 01:43:49;;;;;;;21.15;15.23;;;;;;;-144.47;100.00;61586.06;5030117;28;20030;-76
2022/01/07 01:46:18;;;;;;;20.30;15.43;;;;;;;-144.47;100.00;61586.06;5029776;28;20050;-78
2022/01/07 01:48:45;;;;;;;18.83;14.33;;;;;;;-144.47;100.00;61586.06;5030060;28;20074;-76
2022/01/07 01:51:11;;;;;;;22.05;14.88;;;;;;;-144.47;100.00;61586.06;5029426;28;20120;-78
2022/01/07 01:53:37;;;;;;;20.27;15.48;;;;;;;-144.47;100.00;61586.06;5030103;28;20033;-76
2022/01/07 01:56:03;;;;;;;23.67;15.70;;;;;;;-144.47;100.00;61586.06;5030351;28;20042;-77
2022/01/07 01:58:29;;;;;;;21.80;14.60;;;;;;;-144.47;100.00;61586.06;5028784;28;20041;-77
2022/01/07 02:00:54;;;;;;;21.60;15.05;;;;;;;-144.47;100.00;61586.06;5029865;28;20025;-77
2022/01/07 02:03:20;;;;;;;22.38;15.38;;;;;;;-144.47;100.00;61586.06;5030395;28;20156;-78
2022/01/07 02:05:46;;;;;;;21.52;15.40;;;;;;;-144.47;100.00;61586.06;5030319;28;20039;-77
2022/01/07 02:08:11;;;;;;;20.92;15.30;;;;;;;-144.47;100.00;61586.06;5030403;28;20037;-77
2022/01/07 02:10:37;;;;;;;20.25;15.18;;;;;;;-144.47;100.00;61586.06;5030464;28;20030;-77
2022/01/07 02:13:02;;;;;;;21.75;14.93;;;;;;;-144.47;100.00;61586.06;5030083;28;20405;-77
2022/01/07 02:15:28;;;;;;;21.02;14.63;;;;;;;-144.47;100.00;61586.06;5030239;28;20033;-78
2022/01/07 02:17:54;;;;;;;19.35;14.00;;;;;;;-144.47;100.00;61586.06;5030516;28;20504;-76
2022/01/07 02:20:22;;;;;;;21.27;14.57;;;;;;;-144.47;100.00;61586.06;5029640;28;20038;-76
2022/01/07 02:22:47;;;;;;;21.58;14.98;;;;;;;-144.47;100.00;61586.06;5030345;28;20134;-77
2022/01/07 02:25:13;;;;;;;22.35;15.73;;;;;;;-144.47;100.00;61586.06;5028168;28;20444;-77
2022/01/07 02:27:41;;;;;;;22.08;16.20;;;;;;;-144.47;100.00;61586.06;5029583;28;20163;-77
2022/01/07 02:30:10;;;;;;;19.65;14.48;;;;;;;-144.47;100.00;61586.06;5029597;28;20087;-78
2022/01/07 02:32:35;;;;;;;23.23;14.88;;;;;;;-144.47;100.00;61586.06;5029703;28;20363;-78
2022/01/07 02:35:02;;;;;;;19.85;14.15;;;;;;;-144.47;100.00;61586.06;5029725;28;20040;-77
2022/01/07 02:37:27;;;;;;;21.15;14.77;;;;;;;-144.47;100.00;61586.06;5012510;28;20041;-76
2022/01/07 02:39:54;;;;;;;21.33;15.20;;;;;;;-144.47;100.00;61586.06;5030130;28;20143;-77
2022/01/07 02:42:20;;;;;;;21.00;14.88;;;;;;;-144.47;100.00;61586.06;5029571;28;20419;-77
2022/01/07 02:44:45;;;;;;;21.92;14.68;;;;;;;-144.47;100.00;61586.06;5029723;28;20067;-76
2022/01/07 02:47:11;;;;;;;18.45;14.13;;;;;;;-144.47;100.00;61586.06;5030221;28;20398;-77
2022/01/07 02:49:36;;;;;;;18.20;14.57;;;;;;;-144.47;100.00;61586.06;5031280;28;20037;-78
2022/01/07 02:52:02;;;;;;;20.23;13.98;;;;;;;-144.47;100.00;61586.06;5015346;28;20320;-77
2022/01/07 02:54:27;;;;;;;21.95;14.68;;;;;;;-144.47;100.00;61586.06;5033394;28;20030;-75
2022/01/07 02:56:53;;;;;;;18.23;13.82;;;;;;;-144.47;100.00;61586.06;5029456;28;20041;-77
2022/01/07 02:59:19;;;;;;;24.05;15.55;;;;;;;-144.47;100.00;61586.06;5028649;28;20025;-78
2022/01/07 03:01:44;;;;;;;22.42;15.27;;;;;;;-144.47;100.00;61586.06;5011362;28;20385;-75
2022/01/07 03:04:10;;;;;;;22.65;15.40;;;;;;;-144.47;100.00;61586.06;5028866;28;20095;-76
2022/01/07 03:06:36;;;;;;;21.52;15.32;;;;;;;-144.47;100.00;61586.06;5029496;28;20033;-77
2022/01/07 03:09:04;;;;;;;22.55;16.05;;;;;;;-144.47;100.00;61586.06;5028202;28;20055;-76
2022/01/07 03:11:30;;;;;;;23.52;15.07;;;;;;;-144.47;100.00;61586.06;5029135;28;20040;-76
2022/01/07 03:13:55;;;;;;;18.58;14.50;;;;;;;-144.47;100.00;61586.06;5036280;28;20026;-77
2022/01/07 03:16:21;;;;;;;25.23;15.95;;;;;;;-144.47;100.00;61586.06;5034801;28;20413;-77
2022/01/07 03:18:47;;;;;;;24.80;16.38;;;;;;;-144.47;100.00;61586.06;5029034;28;20037;-77
2022/01/07 03:21:14;;;;;;;21.98;15.63;;;;;;;-144.47;100.00;61586.06;5028770;28;20840;-75
2022/01/07 03:23:41;;;;;;;24.08;17.15;;;;;;;-144.47;100.00;61586.06;5011518;28;20033;-76
2022/01/07 03:26:08;;;;;;;23.92;15.35;;;;;;;-144.47;100.00;61586.06;5028886;28;20819;-77
2022/01/07 03:28:33;;;;;;;24.13;16.10;;;;;;;-144.47;100.00;61586.06;5029016;28;20116;-77
2022/01/07 03:30:59;;;;;;;22.83;16.52;;;;;;;-144.47;100.00;61586.06;5011231;28;20129;-77
2022/01/07 03:33:25;;;;;;;19.05;15.20;;;;;;;-144.47;100.00;61586.06;5010533;28;20048;-77
2022/01/07 03:35:50;;;;;;;21.50;15.40;;;;;;;-144.47;100.00;61586.06;5028237;28;20045;-78
2022/01/07 03:38:16;;;;;;;25.80;17.05;;;;;;;-144.47;100.00;61586.06;5029375;28;20037;-77
2022/01/07 03:40:41;;;;;;;23.45;15.90;;;;;;;-144.47;100.00;61586.06;5014992;28;20224;-78
2022/01/07 03:43:07;;;;;;;23.20;16.33;;;;;;;-144.47;100.00;61586.06;5032273;28;20689;-77
2022/01/07 03:45:33;;;;;;;24.63;16.90;;;;;;;-144.47;100.00;61586.06;5032527;28;20038;-77
2022/01/07 03:47:58;;;;;;;21.25;15.95;;;;;;;-144.47;100.00;61586.06;5032296;28;20179;-78
2022/01/07 03:50:26;;;;;;;24.88;16.77;;;;;;;-144.47;100.00;61586.06;5031270;28;20033;-76
2022/01/07 03:52:54;;;;;;;21.48;15.65;;;;;;;-144.47;100.00;61586.06;5032466;28;20390;-77
2022/01/07 03:55:22;;;;;;;25.08;16.48;;;;;;;-144.47;100.00;61586.06;5031873;28;20185;-76
2022/01/07 03:57:47;;;;;;;22.85;15.90;;;;;;;-144.47;100.00;61586.06;5032250;28;20041;-77
2022/01/07 04:00:21;;;;;;;21.58;16.17;;;;;;;-144.47;100.00;61586.06;5031969;28;20481;-76
2022/01/07 04:02:47;;;;;;;22.35;16.08;;;;;;;-144.47;100.00;61586.06;5031999;28;20040;-76
2022/01/07 04:05:19;;;;;;;20.55;15.20;;;;;;;-144.47;100.00;61586.06;5031327;28;20370;-77
2022/01/07 04:07:45;;;;;;;21.95;15.80;;;;;;;-144.47;100.00;61586.06;5031869;28;20041;-77
2022/01/07 04:10:11;;;;;;;23.50;15.38;;;;;;;-144.47;100.00;61586.06;5030709;28;20060;-76
2022/01/07 04:12:37;;;;;;;25.13;16.60;;;;;;;-144.47;100.00;61586.06;5032015;28;20029;-77
2022/01/07 04:15:09;;;;;;;20.73;15.90;;;;;;;-144.47;100.00;61586.06;5031623;28;20056;-77
2022/01/07 04:17:38;;;;;;;22.60;16.05;;;;;;;-144.47;100.00;61586.06;5032000;28;20371;-77
2022/01/07 04:20:06;;;;;;;18.92;13.75;;;;;;;-144.47;100.00;61586.06;5030895;28;20092;-74
2022/01/07 04:22:33;;;;;;;20.98;15.93;;;;;;;-144.47;100.00;61586.06;5031645;28;20022;-76
2022/01/07 04:25:00;;;;;;;20.42;15.10;;;;;;;-144.47;100.00;61586.06;5031789;28;20034;-77
2022/01/07 04:27:25;;;;;;;18.25;14.93;;;;;;;-144.47;100.00;61586.06;5031263;28;20044;-77
2022/01/07 04:29:51;;;;;;;18.77;15.05;;;;;;;-144.47;100.00;61586.06;5013736;28;20029;-77
2022/01/07 04:32:18;;;;;;;20.48;15.02;;;;;;;-144.47;100.00;61586.06;5031411;28;20095;-77
2022/01/07 04:34:43;;;;;;;19.48;14.50;;;;;;;-144.47;100.00;61586.06;5031105;28;20029;-77
2022/01/07 04:37:09;;;;;;;19.45;14.30;;;;;;;-144.47;100.00;61586.06;5031085;28;20060;-77
2022/01/07 04:39:34;;;;;;;18.75;14.13;;;;;;;-144.47;100.00;61586.06;5031839;28;20040;-76
2022/01/07 04:41:59;;;;;;;20.58;14.20;;;;;;;-144.47;100.00;61586.06;5031421;28;20037;-76
2022/01/07 04:44:25;;;;;;;22.20;15.43;;;;;;;-144.47;100.00;61586.06;5031089;28;20044;-77
2022/01/07 04:46:50;;;;;;;20.92;15.05;;;;;;;-144.47;100.00;61586.06;5031253;28;20048;-76
2022/01/07 04:49:16;;;;;;;18.45;14.45;;;;;;;-144.47;100.00;61586.06;5030738;28;20160;-77
2022/01/07 04:51:41;;;;;;;18.73;14.55;;;;;;;-144.47;100.00;61586.06;5012945;28;20112;-76
2022/01/07 04:54:08;;;;;;;19.17;14.02;;;;;;;-144.47;100.00;61586.06;5030898;28;20113;-76
2022/01/07 04:56:34;;;;;;;22.52;15.52;;;;;;;-144.47;100.00;61586.06;5030588;28;20032;-76
2022/01/07 04:58:59;;;;;;;17.58;14.13;;;;;;;-144.47;100.00;61586.06;5031140;28;20129;-76
2022/01/07 05:01:25;;;;;;;20.33;14.38;;;;;;;-144.47;100.00;61586.06;5030953;28;20033;-77
2022/01/07 05:03:53;;;;;;;20.52;13.88;;;;;;;-144.47;100.00;61586.06;5031049;28;20447;-77
2022/01/07 05:08:56;;;;;;;22.77;14.65;;;;;;;-144.47;100.00;61586.06;5026400;28;20040;-77
2022/01/07 05:11:21;;;;;;;20.70;15.20;;;;;;;-144.47;100.00;61586.06;5012710;28;20033;-77
2022/01/07 05:13:47;;;;;;;20.75;14.65;;;;;;;-144.47;100.00;61586.06;5031134;28;20029;-78
2022/01/07 05:16:12;;;;;;;18.80;14.35;;;;;;;-144.47;100.00;61586.06;5030604;28;20418;-77
2022/01/07 05:18:38;;;;;;;21.75;14.23;;;;;;;-144.47;100.00;61586.06;5030791;28;20386;-77
2022/01/07 05:21:03;;;;;;;19.50;14.18;;;;;;;-144.47;100.00;61586.06;5030040;28;20111;-76
2022/01/07 05:23:29;;;;;;;20.88;13.93;;;;;;;-144.47;100.00;61586.06;5012790;28;20101;-77
2022/01/07 05:25:54;;;;;;;19.48;13.65;;;;;;;-144.47;100.00;61586.06;5030410;28;20099;-77
2022/01/07 05:28:20;;;;;;;22.10;14.73;;;;;;;-144.47;100.00;61586.06;5030867;28;20025;-77
2022/01/07 05:30:45;;;;;;;24.10;14.82;;;;;;;-144.47;100.00;61586.06;5030981;28;20032;-78
2022/01/07 05:33:11;;;;;;;18.67;14.25;;;;;;;-144.47;100.00;61586.06;5030439;28;20041;-77
2022/01/07 05:35:37;;;;;;;21.10;14.65;;;;;;;-144.47;100.00;61586.06;5030661;28;20029;-77
2022/01/07 05:38:02;;;;;;;20.98;14.23;;;;;;;-144.47;100.00;61586.06;5030997;28;20045;-78
2022/01/07 05:40:28;;;;;;;21.75;13.52;;;;;;;-144.47;100.00;61586.06;5033852;28;20044;-76
2022/01/07 05:42:53;;;;;;;19.13;13.73;;;;;;;-144.47;100.00;61586.06;5030476;28;20163;-76
2022/01/07 05:45:19;;;;;;;24.67;13.65;;;;;;;-144.47;100.00;61586.06;5029953;28;20037;-78
2022/01/07 05:47:44;;;;;;;18.65;14.65;;;;;;;-144.47;100.00;61586.06;5030162;28;20031;-77
2022/01/07 05:50:11;;;;;;;23.20;15.02;;;;;;;-144.47;100.00;61586.06;5029591;28;20390;-77
2022/01/07 05:52:37;;;;;;;19.77;14.32;;;;;;;-144.47;100.00;61586.06;5029890;28;20564;-78
2022/01/07 05:55:03;;;;;;;24.92;15.38;;;;;;;-144.47;100.00;61586.06;5012258;28;20111;-78
2022/01/07 05:57:29;;;;;;;17.35;14.07;;;;;;;-144.47;100.00;61586.06;5030050;28;20033;-77
2022/01/07 05:59:55;;;;;;;18.05;14.10;;;;;;;-144.47;100.00;61586.06;5030146;28;20034;-77
2022/01/07 06:02:21;;;;;;;21.40;14.98;;;;;;;-144.47;100.00;61586.06;5029367;28;20450;-77
2022/01/07 06:04:46;;;;;;;19.88;14.55;;;;;;;-144.47;100.00;61586.06;5030289;28;20044;-78
2022/01/07 06:07:11;;;;;;;19.10;14.82;;;;;;;-144.47;100.00;61586.06;5029297;28;20056;-77
2022/01/07 06:09:37;;;;;;;19.40;13.93;;;;;;;-144.47;100.00;61586.06;5033480;28;20030;-78
2022/01/07 06:12:03;;;;;;;18.02;14.73;;;;;;;-144.47;100.00;61586.06;5029716;28;20029;-77
2022/01/07 06:14:28;;;;;;;17.85;14.15;;;;;;;-144.47;100.00;61586.06;5029750;28;20061;-78
2022/01/07 06:16:54;;;;;;;19.73;14.52;;;;;;;-144.47;100.00;61586.06;5029921;28;20157;-77
2022/01/07 06:19:21;;;;;;;22.63;15.13;;;;;;;-144.47;100.00;61586.06;5029742;28;20107;-75
2022/01/07 06:21:46;;;;;;;17.85;13.65;;;;;;;-144.47;100.00;61586.06;5029460;28;20037;-76
2022/01/07 06:24:12;;;;;;;20.13;14.40;;;;;;;-144.47;100.00;61586.06;5028778;28;20147;-75
2022/01/07 06:26:38;;;;;;;19.02;13.43;;;;;;;-144.47;100.00;61586.06;5029958;28;20476;-77
2022/01/07 06:29:05;;;;;;;19.70;14.18;;;;;;;-144.47;100.00;61586.06;5029555;28;20083;-77
2022/01/07 06:31:31;;;;;;;20.17;14.32;;;;;;;-144.47;100.00;61586.06;5029881;28;20037;-76
2022/01/07 06:33:58;;;;;;;19.02;14.30;;;;;;;-144.47;100.00;61586.06;5025955;28;20048;-76
2022/01/07 06:36:24;;;;;;;18.30;14.13;;;;;;;-144.47;100.00;61586.06;5011561;28;20091;-77
2022/01/07 06:38:49;;;;;;;23.20;14.00;;;;;;;-144.47;100.00;61586.06;5011673;28;20561;-77
2022/01/07 06:41:15;;;;;;;18.30;14.35;;;;;;;-144.47;100.00;61586.06;5029098;28;20045;-77
2022/01/07 06:43:41;;;;;;;21.58;15.00;;;;;;;-144.47;100.00;61586.06;5029320;28;20037;-76
2022/01/07 06:46:07;;;;;;;23.05;14.70;;;;;;;-144.47;100.00;61586.06;5028745;28;20144;-75
2022/01/07 06:48:32;;;;;;;22.08;15.57;;;;;;;-144.47;100.00;61586.06;5029149;28;20033;-76
2022/01/07 06:50:57;;;;;;;21.55;14.90;;;;;;;-144.47;100.00;61586.06;5011442;28;20182;-76
2022/01/07 06:53:23;;;;;;;20.90;14.85;;;;;;;-144.47;100.00;61586.06;5029516;28;20063;-76
2022/01/07 06:55:48;;;;;;;19.77;15.20;;;;;;;-144.47;100.00;61586.06;5029354;28;20113;-76
2022/01/07 06:58:14;;;;;;;17.48;14.85;;;;;;;-144.47;100.00;61586.06;5032880;28;20037;-75
2022/01/07 07:00:39;;;;;;;19.08;15.10;;;;;;;-144.47;100.00;61586.06;5036796;28;20037;-76
2022/01/07 07:03:05;;;;;;;25.02;14.50;;;;;;;-144.47;100.00;61586.06;5044660;28;20044;-84
2022/01/07 07:05:30;;;;;;;23.40;14.95;;;;;;;-144.47;100.00;61586.06;5053626;28;20018;-84
2022/01/07 07:07:56;;;;;;;20.52;15.15;;;;;;;-144.47;100.00;61586.06;5046843;28;20041;-82
2022/01/07 07:10:21;;;;;;;23.13;14.75;;;;;;;-144.47;100.00;61586.06;5032954;28;20052;-81
2022/01/07 07:12:47;;;;;;;22.10;15.50;;;;;;;-144.47;100.00;61586.06;5032005;28;20165;-82
2022/01/07 07:15:13;;;;;;;24.60;16.00;;;;;;;-144.47;100.00;61586.06;5035715;28;20049;-82
2022/01/07 07:17:39;;;;;;;24.83;14.98;;;;;;;-144.47;100.00;61586.06;5035643;28;20060;-83
2022/01/07 07:20:04;;;;;;;23.27;15.70;;;;;;;-144.47;100.00;61586.06;5017172;28;20040;-81
2022/01/07 07:22:30;;;;;;;19.50;14.68;;;;;;;-144.47;100.00;61586.06;5034905;28;20033;-83
2022/01/07 07:24:56;;;;;;;21.92;14.63;;;;;;;-144.47;100.00;61586.06;5034598;28;20029;-83
2022/01/07 07:27:21;;;;;;;21.85;15.52;;;;;;;-144.47;100.00;61586.06;5034192;28;20080;-83
2022/01/07 07:29:47;;;;;;;23.85;15.85;;;;;;;-144.47;100.00;61586.06;5034076;28;20025;-83
2022/01/07 07:32:15;;;;;;;21.02;14.40;;;;;;;-144.47;100.00;61586.06;5033526;28;20037;-83
2022/01/07 07:37:13;;;;;;;22.05;15.52;;;;;;;-144.47;100.00;61586.06;5033285;28;20454;-83
2022/01/07 07:39:40;;;;;;;18.52;14.93;;;;;;;-144.47;100.00;61586.06;5033380;28;20040;-84
2022/01/07 07:42:06;;;;;;;17.73;14.70;;;;;;;-144.47;100.00;61586.06;5033636;28;20378;-83
2022/01/07 07:44:31;;;;;;;23.08;16.27;;;;;;;-144.47;100.00;61586.06;5032823;28;20136;-83
2022/01/07 07:46:58;;;;;;;21.85;14.95;;;;;;;-144.47;100.00;61586.06;5015855;28;20509;-83
2022/01/07 07:49:24;;;;;;;25.27;16.63;;;;;;;-144.47;100.00;61586.06;5033308;28;20037;-83
2022/01/07 07:51:51;;;;;;;19.90;15.32;;;;;;;-144.47;100.00;61586.06;5015645;28;20366;-83
2022/01/07 07:54:17;;;;;;;22.02;16.15;;;;;;;-144.47;100.00;61586.06;5033490;28;20053;-82
2022/01/07 07:56:44;;;;;;;23.30;15.65;;;;;;;-144.47;100.00;61586.06;5033960;28;20029;-83
2022/01/07 07:59:09;;;;;;;21.20;15.57;;;;;;;-144.47;100.00;61586.06;5033173;28;20045;-82
2022/01/07 08:01:36;;;;;;;21.83;15.82;;;;;;;-144.47;100.00;61586.06;5040825;28;20027;-83
2022/01/07 08:04:01;;;;;;;24.63;16.17;;;;;;;-144.47;100.00;61586.06;5037160;28;20029;-83
2022/01/07 08:06:27;;;;;;;19.38;14.07;;;;;;;-144.47;100.00;61586.06;5018213;28;20386;-83
2022/01/07 08:08:52;;;;;;;20.73;14.82;;;;;;;-144.47;100.00;61586.06;5015732;28;20050;-82
2022/01/07 08:11:18;;;;;;;22.52;16.02;;;;;;;-144.47;100.00;61586.06;5032958;28;20041;-83
2022/01/07 08:16:28;;;;;;;23.70;16.48;;;;;;;-144.47;100.00;61586.06;5028925;28;20147;-82
2022/01/07 08:18:56;;;;;;;25.33;15.90;;;;;;;-144.47;100.00;61586.06;5033684;28;20049;-81
2022/01/07 08:21:25;;;;;;;24.55;15.63;;;;;;;-144.47;100.00;61586.06;5032116;28;20041;-84
2022/01/07 08:23:52;;;;;;;24.42;16.30;;;;;;;-144.47;100.00;61586.06;5032324;28;20030;-83
2022/01/07 08:26:19;;;;;;;25.63;16.25;;;;;;;-144.47;100.00;61586.06;5014583;28;20045;-84
2022/01/07 08:28:59;;;;;;;22.65;16.27;;;;;;;-144.47;100.00;61586.06;5032558;28;20030;-83
2022/01/07 08:36:41;;;;;;;24.67;16.80;;;;;;;-144.47;100.00;61586.06;5012383;28;20049;-84
2022/01/07 08:39:08;;;;;;;28.55;16.58;;;;;;;-144.47;100.00;61586.06;5031930;28;20391;-81
2022/01/07 08:41:35;;;;;;;27.60;17.73;;;;;;;-144.47;100.00;61586.06;5032389;28;20452;-82
2022/01/07 08:44:02;;;;;;;28.40;18.25;;;;;;;-144.47;100.00;61586.06;5014601;28;20402;-83
2022/01/07 08:46:27;;;;;;;23.35;17.83;;;;;;;-144.47;100.00;61586.06;5028056;28;20040;-83
2022/01/07 08:48:54;;;;;;;28.42;18.50;;;;;;;-144.47;100.00;61586.06;5014266;28;20029;-84
2022/01/07 08:51:19;;;;;;;23.75;17.40;;;;;;;-144.47;100.00;61586.06;5031980;28;20082;-83
2022/01/07 08:53:45;;;;;;;20.75;15.75;;;;;;;-144.47;100.00;61586.06;5032731;28;20033;-84
2022/01/07 08:56:10;;;;;;;23.13;15.98;;;;;;;-144.47;100.00;61586.06;5031641;28;20478;-83
2022/01/07 08:58:36;;;;;;;22.45;15.98;;;;;;;-144.47;100.00;61586.06;5031933;28;20037;-83
2022/01/07 09:01:02;;;;;;;26.48;16.00;;;;;;;-144.47;100.00;61586.06;5031642;28;20045;-83
2022/01/07 09:03:27;;;;;;;28.88;16.63;;;;;;;-144.47;100.00;61586.06;5027774;28;20029;-84
2022/01/07 09:05:53;;;;;;;23.83;16.75;;;;;;;-144.47;100.00;61586.06;5031520;28;20394;-82
2022/01/07 09:08:19;;;;;;;21.23;15.60;;;;;;;-144.47;100.00;61586.06;5031661;28;20422;-82
2022/01/07 09:10:45;;;;;;;22.80;15.75;;;;;;;-144.47;100.00;61586.06;5032628;28;20061;-84
2022/01/07 09:13:11;;;;;;;28.08;15.75;;;;;;;-144.47;100.00;61586.06;5031561;28;20112;-83
2022/01/07 09:15:37;;;;;;;22.50;15.85;;;;;;;-144.47;100.00;61586.06;5032370;28;20047;-83
2022/01/07 09:18:10;;;;;;;25.60;16.98;;;;;;;-144.47;100.00;61586.06;5031242;28;20037;-82
2022/01/07 09:20:42;;;;;;;25.40;16.98;;;;;;;-144.47;100.00;61586.06;5013343;28;20120;-82
2022/01/07 09:23:08;;;;;;;25.55;17.48;;;;;;;-144.47;100.00;61586.06;5031579;28;20389;-82
2022/01/07 09:25:34;;;;;;;23.73;17.73;;;;;;;-144.47;100.00;61586.06;5031406;28;20120;-82
2022/01/07 09:27:59;;;;;;;23.13;16.50;;;;;;;-144.47;100.00;61586.06;5031096;28;20122;-82
2022/01/07 09:30:25;;;;;;;30.52;18.63;;;;;;;-144.47;100.00;61586.06;5031390;28;20087;-82
2022/01/07 09:32:51;;;;;;;33.17;17.90;;;;;;;-144.47;100.00;61586.06;5013352;28;20032;-81
2022/01/07 09:35:17;;;;;;;26.95;17.38;;;;;;;-144.47;100.00;61586.06;5031005;28;20091;-82
2022/01/07 09:37:43;;;;;;;26.02;17.17;;;;;;;-144.47;100.00;61586.06;5031049;28;20034;-82
2022/01/07 09:40:11;;;;;;;24.52;17.00;;;;;;;-144.47;100.00;61586.06;5031141;28;20110;-82
2022/01/07 09:42:37;;;;;;;25.35;17.15;;;;;;;-144.47;100.00;61586.06;5032069;28;20397;-82
2022/01/07 09:45:04;;;;;;;26.40;17.33;;;;;;;-144.47;100.00;61586.06;5041936;28;20041;-82
2022/01/07 09:47:29;;;;;;;26.95;17.63;;;;;;;-144.47;100.00;61586.06;5021826;28;20029;-82
2022/01/07 09:49:55;;;;;;;23.90;16.40;;;;;;;-144.47;100.00;61586.06;5031904;28;20091;-82
2022/01/07 09:52:20;;;;;;;24.95;15.88;;;;;;;-144.47;100.00;61586.06;5016490;28;20044;-83
2022/01/07 09:54:48;;;;;;;22.48;16.00;;;;;;;-144.47;100.00;61586.06;5014122;28;20029;-82
2022/01/07 09:57:15;;;;;;;23.63;15.98;;;;;;;-144.47;100.00;61586.06;5030989;28;20204;-82
2022/01/07 09:59:40;;;;;;;25.33;16.55;;;;;;;-144.47;100.00;61586.06;5031653;28;20105;-83
2022/01/07 10:02:07;;;;;;;21.40;15.77;;;;;;;-144.47;100.00;61586.06;5031141;28;20125;-83
2022/01/07 10:04:39;;;;;;;19.65;15.98;;;;;;;-144.47;100.00;61586.06;5031254;28;20386;-83
2022/01/07 10:07:19;;;;;;;18.63;15.00;;;;;;;-144.47;100.00;61586.06;5031173;28;20037;-83
2022/01/07 10:09:57;;;;;;;20.85;16.08;;;;;;;-144.47;100.00;61586.06;5032056;28;20025;-81
2022/01/07 10:12:24;;;;;;;19.00;15.73;;;;;;;-144.47;100.00;61586.06;5013176;28;20034;-83
2022/01/07 10:15:35;;;;;;;21.50;16.13;;;;;;;-144.47;100.00;61586.06;5030903;28;20490;-82
2022/01/07 10:18:09;;;;;;;25.95;16.48;;;;;;;-144.47;100.00;61586.06;4959080;28;20055;-83
2022/01/07 10:20:37;;;;;;;18.58;14.85;;;;;;;-144.47;100.00;61586.06;4968740;28;20070;-82
2022/01/07 10:23:04;;;;;;;26.20;16.40;;;;;;;-144.47;100.00;61586.06;4991321;28;20109;-83
2022/01/07 10:25:34;;;;;;;22.20;14.20;;;;;;;-144.47;100.00;61586.06;4983410;28;20542;-83
2022/01/07 10:28:29;;;;;;;21.85;15.68;;;;;;;-144.47;100.00;61586.06;4971873;28;20065;-83
2022/01/07 10:30:56;;;;;;;20.45;14.95;;;;;;;-144.47;100.00;61586.06;4969525;28;20508;-83
2022/01/07 10:33:29;;;;;;;20.35;14.90;;;;;;;-144.47;100.00;61586.06;4970283;28;20043;-82
2022/01/07 10:36:19;;;;;;;24.23;15.05;;;;;;;-144.47;100.00;61586.06;4969827;28;20073;-83
2022/01/07 10:38:48;;;;;;;21.88;15.88;;;;;;;-144.47;100.00;61586.06;4960515;28;20054;-82
2022/01/07 10:41:13;;;;;;;22.55;16.35;;;;;;;-144.47;100.00;61586.06;4969522;28;20399;-83
2022/01/07 10:43:39;;;;;;;22.75;15.52;;;;;;;-144.47;100.00;61586.06;4970048;28;20050;-83
2022/01/07 10:46:13;;;;;;;19.35;15.20;;;;;;;-144.47;100.00;61586.06;4953514;28;20050;-83
2022/01/07 10:48:51;;;;;;;24.92;15.18;;;;;;;-144.47;100.00;61586.06;4983959;28;20048;-83
2022/01/07 10:51:44;;;;;;;23.42;15.60;;;;;;;-144.47;100.00;61586.06;5030530;28;20038;-81
2022/01/07 10:54:10;;;;;;;23.15;15.65;;;;;;;-144.47;100.00;61586.06;5028326;28;20041;-82
2022/01/07 10:56:41;;;;;;;24.38;16.08;;;;;;;-144.47;100.00;61586.06;5013507;28;20036;-83
2022/01/07 10:59:17;;;;;;;20.60;15.70;;;;;;;-144.47;100.00;61586.06;5030509;28;20037;-82
2022/01/07 11:01:54;;;;;;;23.77;15.75;;;;;;;-144.47;100.00;61586.06;5041600;28;20029;-82
2022/01/07 11:04:26;;;;;;;23.88;14.73;;;;;;;-144.47;100.00;61586.06;5049310;28;20057;-83
2022/01/07 11:06:52;;;;;;;19.35;14.85;;;;;;;-144.47;100.00;61586.06;5048915;28;20091;-82